Terminal Aerodrome Forecast
Issued by NWS Sioux Falls, SD

Home | Current Version | Previous Version | Graphics & Text | Print | Product List | Glossary Off
Versions: 1 2 3 4 5 6 7 8 9 10 11 12

000
FTUS43 KFSD 230522
TAFSUX
TAF
KSUX 230522Z 2306/2406 13007KT P6SM FEW100 BKN250
     FM231800 16013G21KT P6SM FEW040 SCT150
     FM232300 16011KT P6SM FEW200=

USA.gov is the U.S. government's official web portal to all federal, state and local government web resources and services.